ENBV

Berlevåg Airport

Berlevåg, Norway
METAR ENBV 181950Z 32010KT 3000 SHSN VV012 01/M01 Q1009
Observed Flight Rules
Dec-18 @ 19:50 UTC (41 minutes ago) Instrument Flight Rules
Wind Visibility Clouds Conditions
320° at 10 knots 2,993 meters
  • Vertical visibility at 1,200' AGL
  • Snow
Temperatures Readings
Current 1°C / 34°F
Dewpoint -1°C / 30°F
Humidity 87%
Altimeter 29.79" Hg
Pressure 1009 hPa
Elevation 13
METAR ENBV 181950Z 32010KT 3000 SHSN VV012 01/M01 Q1009
Observed Flight Rules
Dec-18 @ 19:50 UTC
(41 minutes ago)
LIFR
Wind Visibility
320° at 10 knots 2,993 meters
Clouds
  • Vertical visibility at 1,200' AGL
Conditions
  • Snow
Temperature Dewpoint
1°C / 34°F -1°C / 30°F
Humidity Altimeter Pressure
87% 29.79" Hg 1009 hPa